createdAt,value
2018-02-17T00:02:22.987Z,3.95
2018-02-17T00:04:50.654Z,3.92
2018-02-17T00:07:18.258Z,3.92
2018-02-17T00:09:45.943Z,3.96
2018-02-17T00:12:13.744Z,3.97
2018-02-17T00:14:41.407Z,3.91
2018-02-17T00:17:09.107Z,3.88
2018-02-17T00:19:38.210Z,3.85
2018-02-17T00:22:05.893Z,3.84
2018-02-17T00:24:33.652Z,3.77
2018-02-17T00:27:01.307Z,3.72
2018-02-17T00:29:29.036Z,3.71
2018-02-17T00:31:56.762Z,3.71
2018-02-17T00:34:25.857Z,3.75
2018-02-17T00:36:53.851Z,3.79
2018-02-17T00:39:21.656Z,3.73
2018-02-17T00:41:51.499Z,3.67
2018-02-17T00:44:19.187Z,3.69
2018-02-17T00:46:46.856Z,3.74
2018-02-17T00:49:15.187Z,3.68
2018-02-17T00:51:43.229Z,3.70
2018-02-17T00:54:10.897Z,3.73
2018-02-17T00:56:38.534Z,3.64
2018-02-17T00:59:06.213Z,3.60
2018-02-17T01:01:33.934Z,3.58
2018-02-17T01:04:01.601Z,3.61
2018-02-17T01:06:29.266Z,3.56
2018-02-17T01:08:58.735Z,3.59
2018-02-17T01:11:26.685Z,3.61
2018-02-17T01:13:54.429Z,3.64
2018-02-17T01:16:22.153Z,3.66
2018-02-17T01:18:50.123Z,3.60
2018-02-17T01:21:18.516Z,3.56
2018-02-17T01:23:47.175Z,3.58
2018-02-17T01:26:14.916Z,3.59
2018-02-17T01:28:42.711Z,3.53
2018-02-17T01:31:10.491Z,3.47
2018-02-17T01:33:38.098Z,3.50
2018-02-17T01:36:05.936Z,3.56
2018-02-17T01:38:33.679Z,3.60
2018-02-17T01:41:01.373Z,3.65
2018-02-17T01:43:29.150Z,3.68
2018-02-17T01:45:56.962Z,3.68
2018-02-17T01:48:24.656Z,3.68
2018-02-17T01:50:52.283Z,3.59
2018-02-17T01:53:20.043Z,3.53
2018-02-17T01:55:47.795Z,3.57
2018-02-17T01:58:15.482Z,3.47
2018-02-17T02:00:43.235Z,3.44
2018-02-17T02:03:10.878Z,3.50
2018-02-17T02:05:39.225Z,3.61
2018-02-17T02:08:06.939Z,3.68
2018-02-17T02:10:34.655Z,3.59
2018-02-17T02:13:02.378Z,3.63
2018-02-17T02:15:30.065Z,3.63
2018-02-17T02:17:59.074Z,3.65
2018-02-17T02:20:26.935Z,3.66
2018-02-17T02:22:54.613Z,3.65
2018-02-17T02:25:22.424Z,3.67
2018-02-17T02:27:50.045Z,3.69
2018-02-17T02:30:17.803Z,3.71
2018-02-17T02:32:45.514Z,3.72
2018-02-17T02:35:13.323Z,3.70
2018-02-17T02:37:41.082Z,3.61
2018-02-17T02:40:11.674Z,3.60
2018-02-17T02:42:39.790Z,3.59
2018-02-17T02:45:08.993Z,3.48
2018-02-17T02:47:36.788Z,3.41
2018-02-17T02:50:04.484Z,3.45
2018-02-17T02:52:32.254Z,3.52
2018-02-17T02:54:59.923Z,3.42
2018-02-17T02:57:27.616Z,3.40
2018-02-17T02:59:55.422Z,3.39
2018-02-17T03:02:23.103Z,3.36
2018-02-17T03:04:50.807Z,3.36
2018-02-17T03:07:18.440Z,3.22
2018-02-17T03:09:46.075Z,3.09
2018-02-17T03:12:13.670Z,3.03
2018-02-17T03:14:41.307Z,3.00
2018-02-17T03:17:08.899Z,2.95
2018-02-17T03:19:36.538Z,2.99
2018-02-17T03:22:04.127Z,2.99
2018-02-17T03:24:31.753Z,3.08
2018-02-17T03:26:59.332Z,3.13
2018-02-17T03:29:26.995Z,3.12
2018-02-17T03:31:54.592Z,3.14
2018-02-17T03:34:22.210Z,3.14
2018-02-17T03:36:49.815Z,3.12
2018-02-17T03:39:17.440Z,3.04
2018-02-17T03:41:45.070Z,2.78
2018-02-17T03:44:12.735Z,2.73
2018-02-17T03:46:40.336Z,2.81
2018-02-17T03:49:08.034Z,2.88
2018-02-17T03:51:35.635Z,2.99
2018-02-17T03:54:03.252Z,3.06
2018-02-17T03:56:30.908Z,3.14
2018-02-17T03:58:58.551Z,3.20
2018-02-17T04:01:26.143Z,3.26
2018-02-17T04:03:53.798Z,3.24
2018-02-17T04:06:21.407Z,3.26
2018-02-17T04:08:49.071Z,3.26
2018-02-17T04:11:16.755Z,3.26
2018-02-17T04:13:44.448Z,3.28
2018-02-17T04:16:12.242Z,3.25
2018-02-17T04:18:40.825Z,3.27
2018-02-17T04:21:08.488Z,3.29
2018-02-17T04:23:36.191Z,3.33
2018-02-17T04:26:03.816Z,3.35
2018-02-17T04:28:31.427Z,3.32
2018-02-17T04:30:59.022Z,3.29
2018-02-17T04:33:26.732Z,3.32
2018-02-17T04:35:54.337Z,3.29
2018-02-17T04:38:21.947Z,3.26
2018-02-17T04:40:54.860Z,3.25
2018-02-17T04:43:26.287Z,3.26
2018-02-17T04:46:00.413Z,3.24
2018-02-17T04:48:28.550Z,3.25
2018-02-17T04:50:56.142Z,3.27
2018-02-17T04:53:38.618Z,3.26
2018-02-17T04:56:10.747Z,3.23
2018-02-17T05:12:14.110Z,3.02
2018-02-17T05:17:59.402Z,3.01
2018-02-17T05:20:30.816Z,3.02
2018-02-17T05:26:00.970Z,3.13
2018-02-17T05:28:37.063Z,3.12
2018-02-17T05:31:07.500Z,3.06
2018-02-17T05:36:35.473Z,3.05
2018-02-17T05:39:05.548Z,3.10
2018-02-17T05:41:52.632Z,3.12
2018-02-17T05:44:20.287Z,3.18
2018-02-17T05:46:47.980Z,3.16
2018-02-17T05:49:18.547Z,3.16
2018-02-17T05:51:46.162Z,3.18
2018-02-17T05:54:13.804Z,3.15
2018-02-17T05:56:41.442Z,3.14
2018-02-17T05:59:09.174Z,3.12
2018-02-17T06:01:36.796Z,3.12
2018-02-17T06:04:04.548Z,3.08
2018-02-17T06:06:32.154Z,3.08
2018-02-17T06:08:59.792Z,3.13
2018-02-17T06:11:27.510Z,3.14
2018-02-17T06:13:55.163Z,3.14
2018-02-17T06:16:22.772Z,3.14
2018-02-17T06:18:50.445Z,3.12
2018-02-17T06:21:18.144Z,3.09
2018-02-17T06:23:45.943Z,3.10
2018-02-17T06:26:13.636Z,3.11
2018-02-17T06:28:41.385Z,3.13
2018-02-17T06:31:09.030Z,3.09
2018-02-17T06:33:36.694Z,3.08
2018-02-17T06:36:04.630Z,3.05
2018-02-17T06:38:33.191Z,3.06
2018-02-17T06:41:00.939Z,3.11
2018-02-17T06:43:29.004Z,3.13
2018-02-17T06:45:56.614Z,3.19
2018-02-17T06:48:24.287Z,3.23
2018-02-17T06:50:51.928Z,3.27
2018-02-17T06:53:19.651Z,3.31
2018-02-17T06:55:47.381Z,3.35
2018-02-17T06:58:15.006Z,3.36
2018-02-17T07:00:42.647Z,3.40
2018-02-17T07:03:10.305Z,3.40
2018-02-17T07:05:37.999Z,3.40
2018-02-17T07:08:05.620Z,3.43
2018-02-17T07:10:33.274Z,3.46
2018-02-17T07:13:00.891Z,3.51
2018-02-17T07:15:28.654Z,3.56
2018-02-17T07:17:56.279Z,3.58
2018-02-17T07:20:23.937Z,3.64
2018-02-17T07:22:51.594Z,3.60
2018-02-17T07:25:19.259Z,3.59
2018-02-17T07:27:46.957Z,3.58
2018-02-17T07:30:14.587Z,3.59
2018-02-17T07:32:42.208Z,3.61
2018-02-17T07:35:09.865Z,3.64
2018-02-17T07:37:37.675Z,3.68
2018-02-17T07:40:05.350Z,3.71
2018-02-17T07:42:32.991Z,3.70
2018-02-17T07:45:00.722Z,3.72
2018-02-17T07:47:28.339Z,3.77
2018-02-17T07:49:56.065Z,3.75
2018-02-17T07:52:23.710Z,3.72
2018-02-17T07:54:51.393Z,3.75
2018-02-17T07:57:19.048Z,3.78
2018-02-17T07:59:46.709Z,3.80
2018-02-17T08:02:14.344Z,3.82
2018-02-17T08:04:42.049Z,3.82
2018-02-17T08:07:09.713Z,3.88
2018-02-17T08:09:37.373Z,3.90
2018-02-17T08:12:04.975Z,3.93
2018-02-17T08:14:32.603Z,3.95
2018-02-17T08:17:00.251Z,3.99
2018-02-17T08:19:27.888Z,4.02
2018-02-17T08:21:55.545Z,4.05
2018-02-17T08:24:23.155Z,4.08
2018-02-17T08:26:50.805Z,4.13
2018-02-17T08:29:18.429Z,4.16
2018-02-17T08:31:46.112Z,4.20
2018-02-17T08:34:13.742Z,4.20
2018-02-17T08:36:41.415Z,4.22
2018-02-17T08:39:09.027Z,4.25
2018-02-17T08:41:36.683Z,4.31
2018-02-17T08:44:04.286Z,4.30
2018-02-17T08:46:31.932Z,4.31
2018-02-17T08:48:59.535Z,4.33
2018-02-17T08:51:27.204Z,4.35
2018-02-17T08:53:54.833Z,4.41
2018-02-17T08:56:22.500Z,4.47
2018-02-17T08:58:50.119Z,4.52
2018-02-17T09:01:17.764Z,4.57
2018-02-17T09:03:45.387Z,4.62
2018-02-17T09:06:13.066Z,4.67
2018-02-17T09:08:40.759Z,4.74
2018-02-17T09:11:08.439Z,4.78
2018-02-17T09:13:36.130Z,4.83
2018-02-17T09:16:03.810Z,4.86
2018-02-17T09:18:31.467Z,4.96
2018-02-17T09:20:59.104Z,5.12
2018-02-17T09:23:26.720Z,5.18
2018-02-17T09:25:54.423Z,5.31
2018-02-17T09:28:22.038Z,5.30
2018-02-17T09:30:49.694Z,5.30
2018-02-17T09:33:17.340Z,5.30
2018-02-17T09:35:45.020Z,5.33
2018-02-17T09:38:12.631Z,5.34
2018-02-17T09:40:40.276Z,5.30
2018-02-17T09:43:07.962Z,5.28
2018-02-17T09:45:35.670Z,5.30
2018-02-17T09:48:03.287Z,5.35
2018-02-17T09:50:30.984Z,5.30
2018-02-17T09:52:58.601Z,5.20
2018-02-17T09:55:26.256Z,5.18
2018-02-17T09:57:53.958Z,5.13
2018-02-17T10:00:21.620Z,5.08
2018-02-17T10:02:49.352Z,5.09
2018-02-17T10:05:17.042Z,5.10
2018-02-17T10:07:44.689Z,5.17
2018-02-17T10:10:12.309Z,5.20
2018-02-17T10:12:39.959Z,5.19
2018-02-17T10:15:07.560Z,5.26
2018-02-17T10:17:35.243Z,5.40
2018-02-17T10:20:02.883Z,5.40
2018-02-17T10:22:30.595Z,5.41
2018-02-17T10:24:58.296Z,5.50
2018-02-17T10:27:26.009Z,5.61
2018-02-17T10:29:53.920Z,5.68
2018-02-17T10:32:21.683Z,5.79
2018-02-17T10:34:49.432Z,5.79
2018-02-17T10:37:17.060Z,5.79
2018-02-17T10:39:44.737Z,5.72
2018-02-17T10:42:12.499Z,5.72
2018-02-17T10:44:40.232Z,5.87
2018-02-17T10:47:07.975Z,5.98
2018-02-17T10:49:35.730Z,6.03
2018-02-17T10:52:03.392Z,5.96
2018-02-17T10:54:31.036Z,5.94
2018-02-17T10:56:58.684Z,5.99
2018-02-17T10:59:26.426Z,6.05
2018-02-17T11:01:54.086Z,6.09
2018-02-17T11:04:21.719Z,6.24
2018-02-17T11:06:49.363Z,6.29
2018-02-17T11:09:17.007Z,6.30
2018-02-17T11:11:44.794Z,6.25
2018-02-17T11:14:12.429Z,6.34
2018-02-17T11:16:40.143Z,6.40
2018-02-17T11:19:07.929Z,6.46
2018-02-17T11:21:35.595Z,6.62
2018-02-17T11:24:03.273Z,6.80
2018-02-17T11:26:30.932Z,6.88
2018-02-17T11:28:58.587Z,6.91
2018-02-17T11:31:26.391Z,6.92
2018-02-17T11:33:54.036Z,7.07
2018-02-17T11:36:21.731Z,7.25
2018-02-17T11:38:49.422Z,7.41
2018-02-17T11:41:17.110Z,7.36
2018-02-17T11:43:44.780Z,7.40
2018-02-17T11:46:12.452Z,7.53
2018-02-17T11:48:40.063Z,7.49
2018-02-17T11:51:07.716Z,7.58
2018-02-17T11:53:35.374Z,7.71
2018-02-17T11:56:03.029Z,7.92
2018-02-17T11:58:30.681Z,7.81
2018-02-17T12:00:58.340Z,7.67
2018-02-17T12:03:26.017Z,7.72
2018-02-17T12:05:53.643Z,7.97
2018-02-17T12:08:21.268Z,8.12
2018-02-17T12:10:48.959Z,8.10
2018-02-17T12:13:16.576Z,7.86
2018-02-17T12:15:44.263Z,7.73
2018-02-17T12:18:11.923Z,7.74
2018-02-17T12:20:39.763Z,7.75
2018-02-17T12:23:07.418Z,7.91
2018-02-17T12:25:35.100Z,7.98
2018-02-17T12:28:02.811Z,8.08
2018-02-17T12:30:30.490Z,8.09
2018-02-17T12:32:58.122Z,8.17
2018-02-17T12:35:25.779Z,8.20
2018-02-17T12:37:53.531Z,8.30
2018-02-17T12:40:21.231Z,8.14
2018-02-17T12:42:48.902Z,7.97
2018-02-17T12:45:16.568Z,7.94
2018-02-17T12:47:44.261Z,8.16
2018-02-17T12:50:11.931Z,8.17
2018-02-17T12:52:39.664Z,8.40
2018-02-17T12:55:07.381Z,8.68
2018-02-17T12:57:35.823Z,8.90
2018-02-17T13:00:03.524Z,8.92
2018-02-17T13:02:31.289Z,8.95
2018-02-17T13:04:59.081Z,8.85
2018-02-17T13:07:27.764Z,8.88
2018-02-17T13:09:55.699Z,8.99
2018-02-17T13:12:23.380Z,9.00
2018-02-17T13:14:53.147Z,8.96
2018-02-17T13:17:20.983Z,8.88
2018-02-17T13:19:49.064Z,9.18
2018-02-17T13:22:17.583Z,9.05
2018-02-17T13:24:46.255Z,8.91
2018-02-17T13:27:14.167Z,8.92
2018-02-17T13:29:41.957Z,9.10
2018-02-17T13:32:09.795Z,9.04
2018-02-17T13:34:37.620Z,9.02
2018-02-17T13:37:05.302Z,9.01
2018-02-17T13:39:33.065Z,9.11
2018-02-17T13:42:00.707Z,9.56
2018-02-17T13:44:29.270Z,9.90
2018-02-17T13:46:56.901Z,9.78
2018-02-17T13:49:24.590Z,10.07
2018-02-17T13:51:52.203Z,10.56
2018-02-17T13:54:19.901Z,10.62
2018-02-17T13:56:47.530Z,10.32
2018-02-17T13:59:15.244Z,9.85
2018-02-17T14:01:42.938Z,9.34
2018-02-17T14:04:10.736Z,8.89
2018-02-17T14:06:38.381Z,8.91
2018-02-17T14:09:06.011Z,8.86
2018-02-17T14:11:33.634Z,8.93
2018-02-17T14:14:01.284Z,9.07
2018-02-17T14:16:28.960Z,9.00
2018-02-17T14:18:56.614Z,8.87
2018-02-17T14:21:24.252Z,8.67
2018-02-17T14:23:51.887Z,8.61
2018-02-17T14:26:19.531Z,8.51
2018-02-17T14:28:47.320Z,8.45
2018-02-17T14:31:14.945Z,8.41
2018-02-17T14:33:42.766Z,8.34
2018-02-17T14:36:10.395Z,8.33
2018-02-17T14:38:38.046Z,8.25
2018-02-17T14:41:05.784Z,8.40
2018-02-17T14:43:33.476Z,8.31
2018-02-17T14:46:01.142Z,8.30
2018-02-17T14:48:28.785Z,8.28
2018-02-17T14:50:56.415Z,8.22
2018-02-17T14:53:24.047Z,8.21
2018-02-17T14:55:51.664Z,8.24
2018-02-17T14:58:19.440Z,8.36
2018-02-17T15:00:47.076Z,8.39
2018-02-17T15:03:15.663Z,8.33
2018-02-17T15:05:43.345Z,8.33
2018-02-17T15:08:11.002Z,8.30
2018-02-17T15:10:38.657Z,8.21
2018-02-17T15:13:06.298Z,8.11
2018-02-17T15:15:33.939Z,8.04
2018-02-17T15:18:01.610Z,8.04
2018-02-17T15:20:29.227Z,8.04
2018-02-17T15:22:57.007Z,8.15
2018-02-17T15:25:24.656Z,8.31
2018-02-17T15:27:52.304Z,8.41
2018-02-17T15:30:19.918Z,8.52
2018-02-17T15:32:47.554Z,8.48
2018-02-17T15:35:15.424Z,8.32
2018-02-17T15:37:43.052Z,8.16
2018-02-17T15:40:10.693Z,8.02
2018-02-17T15:42:38.382Z,7.98
2018-02-17T15:45:06.066Z,7.95
2018-02-17T15:47:33.719Z,7.93
2018-02-17T15:50:01.343Z,7.91
2018-02-17T15:52:29.137Z,7.89
2018-02-17T15:54:56.756Z,7.86
2018-02-17T15:57:24.430Z,7.82
2018-02-17T15:59:52.057Z,7.90
2018-02-17T16:02:19.658Z,8.07
2018-02-17T16:04:47.526Z,8.25
2018-02-17T16:07:15.115Z,8.35
2018-02-17T16:09:42.784Z,8.45
2018-02-17T16:12:10.414Z,8.61
2018-02-17T16:14:38.060Z,8.60
2018-02-17T16:17:05.678Z,8.62
2018-02-17T16:19:33.354Z,8.65
2018-02-17T16:22:00.976Z,8.71
2018-02-17T16:24:28.660Z,8.66
2018-02-17T16:26:56.330Z,8.66
2018-02-17T16:29:23.967Z,8.56
2018-02-17T16:31:51.673Z,8.36
2018-02-17T16:34:19.393Z,8.29
2018-02-17T16:36:47.015Z,8.24
2018-02-17T16:39:14.697Z,8.21
2018-02-17T16:41:42.416Z,8.17
2018-02-17T16:44:10.215Z,8.14
2018-02-17T16:46:37.909Z,8.13
2018-02-17T16:49:05.599Z,8.06
2018-02-17T16:51:33.271Z,8.00
2018-02-17T16:54:00.979Z,7.93
2018-02-17T16:56:28.667Z,7.86
2018-02-17T16:58:56.376Z,7.82
2018-02-17T17:01:24.033Z,7.78
2018-02-17T17:03:51.706Z,7.72
2018-02-17T17:06:19.355Z,7.64
2018-02-17T17:08:47.034Z,7.59
2018-02-17T17:11:14.689Z,7.51
2018-02-17T17:13:42.384Z,7.46
2018-02-17T17:16:10.025Z,7.40
2018-02-17T17:18:37.702Z,7.36
2018-02-17T17:21:05.431Z,7.30
2018-02-17T17:23:33.158Z,7.23
2018-02-17T17:26:00.864Z,7.14
2018-02-17T17:28:28.546Z,7.09
2018-02-17T17:30:56.268Z,7.04
2018-02-17T17:33:24.091Z,7.00
2018-02-17T17:35:51.781Z,6.93
2018-02-17T17:38:19.428Z,6.88
2018-02-17T17:40:47.083Z,6.82
2018-02-17T17:43:14.858Z,6.76
2018-02-17T17:45:42.507Z,6.70
2018-02-17T17:48:10.215Z,6.62
2018-02-17T17:50:37.865Z,6.58
2018-02-17T17:53:05.611Z,6.53
2018-02-17T17:55:33.255Z,6.46
2018-02-17T17:58:00.952Z,6.43
2018-02-17T18:00:28.572Z,6.38
2018-02-17T18:02:56.250Z,6.32
2018-02-17T18:05:24.007Z,6.26
2018-02-17T18:07:53.470Z,6.23
2018-02-17T18:10:21.409Z,6.13
2018-02-17T18:12:49.819Z,6.11
2018-02-17T18:15:19.243Z,6.07
2018-02-17T18:17:47.161Z,6.07
2018-02-17T18:20:14.928Z,6.04
2018-02-17T18:22:42.664Z,6.02
2018-02-17T18:25:10.382Z,6.01
2018-02-17T18:27:38.101Z,5.94
2018-02-17T18:30:05.780Z,5.92
2018-02-17T18:32:33.579Z,5.96
2018-02-17T18:35:01.327Z,5.92
2018-02-17T18:37:29.061Z,5.87
2018-02-17T18:39:56.707Z,5.84
2018-02-17T18:42:24.370Z,5.82
2018-02-17T18:44:52.028Z,5.79
2018-02-17T18:47:19.724Z,5.72
2018-02-17T18:49:47.366Z,5.69
2018-02-17T18:52:15.031Z,5.71
2018-02-17T18:54:42.692Z,5.68
2018-02-17T18:57:10.440Z,5.70
2018-02-17T18:59:38.359Z,5.70
2018-02-17T19:02:06.163Z,5.66
2018-02-17T19:04:33.841Z,5.58
2018-02-17T19:07:01.608Z,5.52
2018-02-17T19:09:29.229Z,5.47
2018-02-17T19:11:56.929Z,5.44
2018-02-17T19:14:25.176Z,5.38
2018-02-17T19:16:52.878Z,5.29
2018-02-17T19:19:20.562Z,5.25
2018-02-17T19:21:48.380Z,5.22
2018-02-17T19:24:16.188Z,5.19
2018-02-17T19:26:43.934Z,5.14
2018-02-17T19:29:12.498Z,5.13
2018-02-17T19:31:40.256Z,5.08
2018-02-17T19:34:08.044Z,5.05
2018-02-17T19:36:35.778Z,5.04
2018-02-17T19:39:03.533Z,5.02
2018-02-17T19:41:31.325Z,4.98
2018-02-17T19:43:59.137Z,4.96
2018-02-17T19:46:26.935Z,4.95
2018-02-17T19:48:55.543Z,4.93
2018-02-17T19:51:23.386Z,4.89
2018-02-17T19:53:51.160Z,4.89
2018-02-17T19:56:19.023Z,4.88
2018-02-17T19:58:46.706Z,4.87
2018-02-17T20:01:14.509Z,4.85
2018-02-17T20:03:42.266Z,4.83
2018-02-17T20:06:10.025Z,4.81
2018-02-17T20:08:37.799Z,4.77
2018-02-17T20:11:05.580Z,4.76
2018-02-17T20:13:33.339Z,4.71
2018-02-17T20:16:01.196Z,4.64
2018-02-17T20:18:28.947Z,4.62
2018-02-17T20:20:56.719Z,4.65
2018-02-17T20:23:24.454Z,4.70
2018-02-17T20:25:52.237Z,4.70
2018-02-17T20:28:20.021Z,4.67
2018-02-17T20:30:47.911Z,4.66
2018-02-17T20:33:15.788Z,4.63
2018-02-17T20:35:43.578Z,4.62
2018-02-17T20:38:11.335Z,4.61
2018-02-17T20:40:39.111Z,4.60
2018-02-17T20:43:06.915Z,4.56
2018-02-17T20:45:34.713Z,4.54
2018-02-17T20:48:02.508Z,4.42
2018-02-17T20:50:30.265Z,4.24
2018-02-17T20:52:58.136Z,4.21
2018-02-17T20:55:26.685Z,4.13
2018-02-17T20:57:54.646Z,4.05
2018-02-17T21:00:25.430Z,4.06
2018-02-17T21:02:53.213Z,4.06
2018-02-17T21:05:21.734Z,4.04
2018-02-17T21:07:50.460Z,4.03
2018-02-17T21:10:18.274Z,3.96
2018-02-17T21:12:46.088Z,3.92
2018-02-17T21:15:13.911Z,3.99
2018-02-17T21:17:41.751Z,4.03
2018-02-17T21:20:09.580Z,4.10
2018-02-17T21:22:37.355Z,4.04
2018-02-17T21:25:05.191Z,3.92
2018-02-17T21:27:33.010Z,3.79
2018-02-17T21:30:00.828Z,3.75
2018-02-17T21:32:28.692Z,3.76
2018-02-17T21:34:56.495Z,3.78
2018-02-17T21:37:24.299Z,3.75
2018-02-17T21:39:52.102Z,3.63
2018-02-17T21:42:19.866Z,3.49
2018-02-17T21:44:47.665Z,3.46
2018-02-17T21:47:15.428Z,3.48
2018-02-17T21:49:43.245Z,3.44
2018-02-17T21:52:11.040Z,3.48
2018-02-17T21:54:38.810Z,3.42
2018-02-17T21:57:06.617Z,3.37
2018-02-17T21:59:34.349Z,3.37
2018-02-17T22:02:02.173Z,3.31
2018-02-17T22:04:29.894Z,3.41
2018-02-17T22:06:57.659Z,3.48
2018-02-17T22:09:25.474Z,3.52
2018-02-17T22:11:53.373Z,3.47
2018-02-17T22:14:21.172Z,3.46
2018-02-17T22:16:48.922Z,3.41
2018-02-17T22:19:16.701Z,3.37
2018-02-17T22:21:44.509Z,3.42
2018-02-17T22:24:12.232Z,3.39
2018-02-17T22:26:40.016Z,3.31
2018-02-17T22:29:07.801Z,3.30
2018-02-17T22:31:35.552Z,3.36
2018-02-17T22:34:03.252Z,3.36
2018-02-17T22:36:31.027Z,3.35
2018-02-17T22:38:58.733Z,3.34
2018-02-17T22:41:26.532Z,3.33
2018-02-17T22:43:54.208Z,3.35
2018-02-17T22:46:22.669Z,3.39
2018-02-17T22:48:50.395Z,3.37
2018-02-17T22:51:18.164Z,3.23
2018-02-17T22:53:45.902Z,3.18
2018-02-17T22:56:13.616Z,3.15
2018-02-17T22:58:41.380Z,3.13
2018-02-17T23:01:09.089Z,3.04
2018-02-17T23:03:36.875Z,3.03
2018-02-17T23:06:04.620Z,3.04
2018-02-17T23:08:32.336Z,3.02
2018-02-17T23:11:00.177Z,3.02
2018-02-17T23:13:27.859Z,3.01
2018-02-17T23:15:55.650Z,3.01
2018-02-17T23:18:23.356Z,3.05
2018-02-17T23:20:51.102Z,3.03
2018-02-17T23:23:18.760Z,2.98
2018-02-17T23:25:47.090Z,2.93
2018-02-17T23:28:14.882Z,2.87
2018-02-17T23:30:42.750Z,2.90
2018-02-17T23:33:10.518Z,2.90
2018-02-17T23:35:38.469Z,2.89
2018-02-17T23:38:06.461Z,2.92
2018-02-17T23:40:34.350Z,2.86
2018-02-17T23:43:02.267Z,2.77
2018-02-17T23:45:30.144Z,2.69
2018-02-17T23:47:57.907Z,2.60
2018-02-17T23:50:25.708Z,2.56
2018-02-17T23:52:53.484Z,2.49
2018-02-17T23:55:21.324Z,2.47
2018-02-17T23:57:49.080Z,2.37
